Dickinson's Hourly Summary for Wednesday, July 4, 2018
Hour Temp
(f)
RH
(%)
Solar Rad.
(MJ/m2)
Rainfall
(in)
Wind
(mph)
7/4/2018 12:00 AM 75 90 0 0.01 0.29
7/4/2018 1:00 AM 74 93 0 0 0.52
7/4/2018 2:00 AM 74 93 0 0 0
7/4/2018 3:00 AM 75 94 0 0 0
7/4/2018 4:00 AM 75 95 0 0 0
7/4/2018 5:00 AM 76 94 0 0 0.01
7/4/2018 6:00 AM 76 94 0 0.01 0
7/4/2018 7:00 AM 76 92 0 0.04 0.7
7/4/2018 8:00 AM 75 91 0.02 0.16 0.89
7/4/2018 9:00 AM 74 89 0.02 0.63 4.86
7/4/2018 10:00 AM 73 94 0.03 0.19 4.33
7/4/2018 11:00 AM 72 92 0.15 0.25 2.74
7/4/2018 12:00 PM 73 96 0.18 0.21 2.56
7/4/2018 1:00 PM 72 94 0.17 0.1 1.28
7/4/2018 2:00 PM 72 93 0.33 0.1 0.74
7/4/2018 3:00 PM 73 94 0.4 0.06 2.57
7/4/2018 4:00 PM 73 94 0.34 0.02 1.14
7/4/2018 5:00 PM 74 85 0.82 0 0.45
7/4/2018 6:00 PM 76 80 0.89 0 1.98
7/4/2018 7:00 PM 77 73 0.92 0 2.31
7/4/2018 8:00 PM 76 75 0.27 0 0.56
7/4/2018 9:00 PM 75 83 0.02 0 0
7/4/2018 10:00 PM 75 89 0 0 0
7/4/2018 11:00 PM 75 89 0 0 0.08
Data Summary 74 89 4.56 1.78 1.17